sensor_id;sensor_type;location;lat;lon;timestamp;P1;durP1;ratioP1;P2;durP2;ratioP2
63555;SDS011;49700;48.072;7.800;2023-03-20T00:00:18;3.03;;;2.77;;
63555;SDS011;49700;48.072;7.800;2023-03-20T00:02:55;2.95;;;2.60;;
63555;SDS011;49700;48.072;7.800;2023-03-20T00:05:22;5.10;;;3.10;;
63555;SDS011;49700;48.072;7.800;2023-03-20T00:07:49;4.10;;;3.25;;
63555;SDS011;49700;48.072;7.800;2023-03-20T00:10:15;6.87;;;3.20;;
63555;SDS011;49700;48.072;7.800;2023-03-20T00:12:42;4.40;;;3.17;;
63555;SDS011;49700;48.072;7.800;2023-03-20T00:15:18;4.18;;;3.45;;
63555;SDS011;49700;48.072;7.800;2023-03-20T00:17:49;5.18;;;3.22;;
63555;SDS011;49700;48.072;7.800;2023-03-20T00:20:15;3.88;;;3.50;;
63555;SDS011;49700;48.072;7.800;2023-03-20T00:22:41;7.85;;;3.47;;
63555;SDS011;49700;48.072;7.800;2023-03-20T00:25:18;4.57;;;4.03;;
63555;SDS011;49700;48.072;7.800;2023-03-20T00:27:46;4.15;;;3.53;;
63555;SDS011;49700;48.072;7.800;2023-03-20T00:30:17;4.95;;;3.95;;
63555;SDS011;49700;48.072;7.800;2023-03-20T00:32:46;3.13;;;2.80;;
63555;SDS011;49700;48.072;7.800;2023-03-20T00:35:21;5.60;;;4.40;;
63555;SDS011;49700;48.072;7.800;2023-03-20T00:37:49;3.60;;;3.30;;
63555;SDS011;49700;48.072;7.800;2023-03-20T00:40:16;3.65;;;3.10;;
63555;SDS011;49700;48.072;7.800;2023-03-20T00:42:42;5.90;;;4.00;;
63555;SDS011;49700;48.072;7.800;2023-03-20T00:45:14;5.82;;;4.03;;
63555;SDS011;49700;48.072;7.800;2023-03-20T00:47:43;4.55;;;4.03;;
63555;SDS011;49700;48.072;7.800;2023-03-20T00:50:17;4.63;;;4.20;;
63555;SDS011;49700;48.072;7.800;2023-03-20T00:52:46;3.70;;;2.80;;
63555;SDS011;49700;48.072;7.800;2023-03-20T00:55:12;4.05;;;3.65;;
63555;SDS011;49700;48.072;7.800;2023-03-20T00:57:59;4.50;;;3.43;;
63555;SDS011;49700;48.072;7.800;2023-03-20T01:02:55;3.70;;;3.10;;
63555;SDS011;49700;48.072;7.800;2023-03-20T01:05:23;4.38;;;2.58;;
63555;SDS011;49700;48.072;7.800;2023-03-20T01:07:52;5.30;;;3.65;;
63555;SDS011;49700;48.072;7.800;2023-03-20T01:10:18;4.30;;;3.00;;
63555;SDS011;49700;48.072;7.800;2023-03-20T01:12:45;3.28;;;3.00;;
63555;SDS011;49700;48.072;7.800;2023-03-20T01:15:15;3.15;;;2.63;;
63555;SDS011;49700;48.072;7.800;2023-03-20T01:17:43;4.57;;;2.90;;
63555;SDS011;49700;48.072;7.800;2023-03-20T01:20:20;3.57;;;2.83;;
63555;SDS011;49700;48.072;7.800;2023-03-20T01:22:48;2.45;;;2.25;;
63555;SDS011;49700;48.072;7.800;2023-03-20T01:25:14;3.30;;;2.43;;
63555;SDS011;49700;48.072;7.800;2023-03-20T01:27:41;2.50;;;2.30;;
63555;SDS011;49700;48.072;7.800;2023-03-20T01:30:17;3.00;;;2.08;;
63555;SDS011;49700;48.072;7.800;2023-03-20T01:32:45;2.38;;;1.92;;
63555;SDS011;49700;48.072;7.800;2023-03-20T01:35:14;2.10;;;1.63;;
63555;SDS011;49700;48.072;7.800;2023-03-20T01:37:41;2.30;;;2.10;;
63555;SDS011;49700;48.072;7.800;2023-03-20T01:40:18;3.33;;;2.13;;
63555;SDS011;49700;48.072;7.800;2023-03-20T01:42:49;2.33;;;2.00;;
63555;SDS011;49700;48.072;7.800;2023-03-20T01:45:17;2.13;;;1.92;;
63555;SDS011;49700;48.072;7.800;2023-03-20T01:47:47;2.03;;;1.83;;
63555;SDS011;49700;48.072;7.800;2023-03-20T01:50:20;1.63;;;1.50;;
63555;SDS011;49700;48.072;7.800;2023-03-20T01:53:01;2.03;;;1.83;;
63555;SDS011;49700;48.072;7.800;2023-03-20T01:55:29;1.80;;;1.70;;
63555;SDS011;49700;48.072;7.800;2023-03-20T01:57:59;1.85;;;1.67;;
63555;SDS011;49700;48.072;7.800;2023-03-20T02:00:28;2.00;;;1.80;;
63555;SDS011;49700;48.072;7.800;2023-03-20T02:02:54;2.90;;;1.37;;
63555;SDS011;49700;48.072;7.800;2023-03-20T02:05:43;2.53;;;2.13;;
63555;SDS011;49700;48.072;7.800;2023-03-20T02:08:18;2.72;;;2.05;;
63555;SDS011;49700;48.072;7.800;2023-03-20T02:11:05;2.90;;;1.75;;
63555;SDS011;49700;48.072;7.800;2023-03-20T02:13:32;1.70;;;1.45;;
63555;SDS011;49700;48.072;7.800;2023-03-20T02:18:43;1.50;;;1.27;;
63555;SDS011;49700;48.072;7.800;2023-03-20T02:24:06;2.72;;;1.40;;
63555;SDS011;49700;48.072;7.800;2023-03-20T02:27:05;2.20;;;2.00;;
63555;SDS011;49700;48.072;7.800;2023-03-20T02:49:16;1.92;;;1.73;;
63555;SDS011;49700;48.072;7.800;2023-03-20T02:51:59;2.42;;;1.77;;
63555;SDS011;49700;48.072;7.800;2023-03-20T02:54:43;2.40;;;2.20;;
63555;SDS011;49700;48.072;7.800;2023-03-20T02:57:18;2.35;;;2.00;;
63555;SDS011;49700;48.072;7.800;2023-03-20T03:02:33;3.15;;;2.30;;
63555;SDS011;49700;48.072;7.800;2023-03-20T03:05:24;3.00;;;2.28;;
63555;SDS011;49700;48.072;7.800;2023-03-20T03:07:56;3.80;;;3.50;;
63555;SDS011;49700;48.072;7.800;2023-03-20T03:10:26;2.75;;;2.50;;
63555;SDS011;49700;48.072;7.800;2023-03-20T03:12:55;3.03;;;2.72;;
63555;SDS011;49700;48.072;7.800;2023-03-20T03:15:26;3.70;;;2.90;;
63555;SDS011;49700;48.072;7.800;2023-03-20T03:17:57;5.50;;;3.10;;
63555;SDS011;49700;48.072;7.800;2023-03-20T03:20:26;3.92;;;2.45;;
63555;SDS011;49700;48.072;7.800;2023-03-20T03:22:55;3.17;;;2.88;;
63555;SDS011;49700;48.072;7.800;2023-03-20T03:25:21;3.87;;;2.80;;
63555;SDS011;49700;48.072;7.800;2023-03-20T03:28:09;2.83;;;2.30;;
63555;SDS011;49700;48.072;7.800;2023-03-20T03:31:06;2.75;;;2.38;;
63555;SDS011;49700;48.072;7.800;2023-03-20T03:33:36;3.60;;;3.20;;
63555;SDS011;49700;48.072;7.800;2023-03-20T03:36:10;3.03;;;2.72;;
63555;SDS011;49700;48.072;7.800;2023-03-20T03:38:59;4.72;;;3.58;;
63555;SDS011;49700;48.072;7.800;2023-03-20T03:46:46;4.13;;;3.53;;
63555;SDS011;49700;48.072;7.800;2023-03-20T03:49:20;3.13;;;2.60;;
63555;SDS011;49700;48.072;7.800;2023-03-20T03:51:51;3.85;;;3.30;;
63555;SDS011;49700;48.072;7.800;2023-03-20T03:55:04;4.93;;;3.95;;
63555;SDS011;49700;48.072;7.800;2023-03-20T04:00:25;3.63;;;3.33;;
63555;SDS011;49700;48.072;7.800;2023-03-20T04:02:53;3.50;;;2.63;;
63555;SDS011;49700;48.072;7.800;2023-03-20T04:05:21;4.32;;;3.65;;
63555;SDS011;49700;48.072;7.800;2023-03-20T04:07:54;3.88;;;3.10;;
63555;SDS011;49700;48.072;7.800;2023-03-20T04:10:20;5.43;;;3.38;;
63555;SDS011;49700;48.072;7.800;2023-03-20T04:12:46;6.67;;;3.83;;
63555;SDS011;49700;48.072;7.800;2023-03-20T04:15:12;5.53;;;4.10;;
63555;SDS011;49700;48.072;7.800;2023-03-20T04:17:40;5.35;;;3.83;;
63555;SDS011;49700;48.072;7.800;2023-03-20T04:20:07;4.15;;;3.60;;
63555;SDS011;49700;48.072;7.800;2023-03-20T04:22:34;4.03;;;3.45;;
63555;SDS011;49700;48.072;7.800;2023-03-20T04:25:08;4.10;;;3.70;;
63555;SDS011;49700;48.072;7.800;2023-03-20T04:27:40;4.90;;;3.92;;
63555;SDS011;49700;48.072;7.800;2023-03-20T04:30:12;5.10;;;3.35;;
63555;SDS011;49700;48.072;7.800;2023-03-20T04:33:07;5.50;;;4.20;;
63555;SDS011;49700;48.072;7.800;2023-03-20T04:36:01;4.85;;;3.90;;
63555;SDS011;49700;48.072;7.800;2023-03-20T04:38:27;4.63;;;3.57;;
63555;SDS011;49700;48.072;7.800;2023-03-20T04:40:53;3.97;;;3.53;;
63555;SDS011;49700;48.072;7.800;2023-03-20T04:43:19;6.30;;;4.40;;
63555;SDS011;49700;48.072;7.800;2023-03-20T04:45:44;6.10;;;4.10;;
63555;SDS011;49700;48.072;7.800;2023-03-20T04:48:11;3.75;;;3.05;;
63555;SDS011;49700;48.072;7.800;2023-03-20T04:50:36;3.77;;;3.47;;
63555;SDS011;49700;48.072;7.800;2023-03-20T04:53:03;4.18;;;3.72;;
63555;SDS011;49700;48.072;7.800;2023-03-20T04:55:28;5.13;;;3.60;;
63555;SDS011;49700;48.072;7.800;2023-03-20T04:57:54;4.03;;;3.67;;
63555;SDS011;49700;48.072;7.800;2023-03-20T05:00:20;4.53;;;4.13;;
63555;SDS011;49700;48.072;7.800;2023-03-20T05:02:45;5.47;;;3.97;;
63555;SDS011;49700;48.072;7.800;2023-03-20T05:05:13;5.50;;;3.47;;
63555;SDS011;49700;48.072;7.800;2023-03-20T05:07:38;7.77;;;5.87;;
63555;SDS011;49700;48.072;7.800;2023-03-20T05:10:07;4.20;;;3.75;;
63555;SDS011;49700;48.072;7.800;2023-03-20T05:12:43;5.57;;;4.70;;
63555;SDS011;49700;48.072;7.800;2023-03-20T05:15:23;5.43;;;4.40;;
63555;SDS011;49700;48.072;7.800;2023-03-20T05:18:03;3.90;;;3.50;;
63555;SDS011;49700;48.072;7.800;2023-03-20T05:20:38;5.25;;;3.83;;
63555;SDS011;49700;48.072;7.800;2023-03-20T05:23:12;5.30;;;4.35;;
63555;SDS011;49700;48.072;7.800;2023-03-20T05:25:46;5.43;;;4.18;;
63555;SDS011;49700;48.072;7.800;2023-03-20T05:28:33;6.38;;;4.22;;
63555;SDS011;49700;48.072;7.800;2023-03-20T05:31:31;4.47;;;4.07;;
63555;SDS011;49700;48.072;7.800;2023-03-20T05:34:17;5.70;;;4.22;;
63555;SDS011;49700;48.072;7.800;2023-03-20T05:36:57;5.93;;;4.82;;
63555;SDS011;49700;48.072;7.800;2023-03-20T05:39:57;6.10;;;3.88;;
63555;SDS011;49700;48.072;7.800;2023-03-20T05:42:49;4.25;;;3.58;;
63555;SDS011;49700;48.072;7.800;2023-03-20T05:45:24;6.40;;;4.55;;
63555;SDS011;49700;48.072;7.800;2023-03-20T05:48:25;6.32;;;4.20;;
63555;SDS011;49700;48.072;7.800;2023-03-20T05:51:20;5.13;;;4.45;;
63555;SDS011;49700;48.072;7.800;2023-03-20T05:53:51;7.20;;;5.47;;
63555;SDS011;49700;48.072;7.800;2023-03-20T05:56:23;6.10;;;5.15;;
63555;SDS011;49700;48.072;7.800;2023-03-20T05:59:01;5.57;;;5.03;;
63555;SDS011;49700;48.072;7.800;2023-03-20T06:01:50;6.90;;;5.85;;
63555;SDS011;49700;48.072;7.800;2023-03-20T06:04:36;6.90;;;5.80;;
63555;SDS011;49700;48.072;7.800;2023-03-20T06:07:14;8.95;;;5.43;;
63555;SDS011;49700;48.072;7.800;2023-03-20T06:09:43;5.80;;;5.30;;
63555;SDS011;49700;48.072;7.800;2023-03-20T06:12:11;6.53;;;4.90;;
63555;SDS011;49700;48.072;7.800;2023-03-20T06:14:37;7.43;;;6.03;;
63555;SDS011;49700;48.072;7.800;2023-03-20T06:17:05;5.40;;;4.50;;
63555;SDS011;49700;48.072;7.800;2023-03-20T06:19:31;6.77;;;4.10;;
63555;SDS011;49700;48.072;7.800;2023-03-20T06:21:56;7.33;;;4.40;;
63555;SDS011;49700;48.072;7.800;2023-03-20T06:24:22;6.90;;;4.65;;
63555;SDS011;49700;48.072;7.800;2023-03-20T06:26:48;8.17;;;6.23;;
63555;SDS011;49700;48.072;7.800;2023-03-20T06:29:13;7.63;;;5.33;;
63555;SDS011;49700;48.072;7.800;2023-03-20T06:31:39;8.43;;;5.30;;
63555;SDS011;49700;48.072;7.800;2023-03-20T06:34:09;6.20;;;4.88;;
63555;SDS011;49700;48.072;7.800;2023-03-20T06:36:41;7.22;;;5.60;;
63555;SDS011;49700;48.072;7.800;2023-03-20T06:39:13;5.95;;;4.97;;
63555;SDS011;49700;48.072;7.800;2023-03-20T06:41:39;6.77;;;4.37;;
63555;SDS011;49700;48.072;7.800;2023-03-20T06:44:07;5.15;;;4.38;;
63555;SDS011;49700;48.072;7.800;2023-03-20T06:46:58;5.63;;;4.03;;
63555;SDS011;49700;48.072;7.800;2023-03-20T06:49:24;5.50;;;4.30;;
63555;SDS011;49700;48.072;7.800;2023-03-20T06:51:49;6.50;;;4.23;;
63555;SDS011;49700;48.072;7.800;2023-03-20T06:54:22;5.90;;;5.07;;
63555;SDS011;49700;48.072;7.800;2023-03-20T06:56:47;6.60;;;5.90;;
63555;SDS011;49700;48.072;7.800;2023-03-20T06:59:13;5.87;;;4.77;;
63555;SDS011;49700;48.072;7.800;2023-03-20T07:01:38;6.10;;;4.67;;
63555;SDS011;49700;48.072;7.800;2023-03-20T07:04:05;7.22;;;5.18;;
63555;SDS011;49700;48.072;7.800;2023-03-20T07:06:37;7.32;;;5.40;;
63555;SDS011;49700;48.072;7.800;2023-03-20T07:09:02;3.87;;;3.50;;
63555;SDS011;49700;48.072;7.800;2023-03-20T07:11:29;5.15;;;4.50;;
63555;SDS011;49700;48.072;7.800;2023-03-20T07:13:55;5.67;;;4.50;;
63555;SDS011;49700;48.072;7.800;2023-03-20T07:16:35;4.70;;;4.30;;
63555;SDS011;49700;48.072;7.800;2023-03-20T07:19:00;5.33;;;4.03;;
63555;SDS011;49700;48.072;7.800;2023-03-20T07:21:31;5.60;;;3.90;;
63555;SDS011;49700;48.072;7.800;2023-03-20T07:23:57;8.30;;;3.88;;
63555;SDS011;49700;48.072;7.800;2023-03-20T07:26:23;7.45;;;4.40;;
63555;SDS011;49700;48.072;7.800;2023-03-20T07:28:50;6.25;;;4.60;;
63555;SDS011;49700;48.072;7.800;2023-03-20T07:31:24;5.30;;;3.50;;
63555;SDS011;49700;48.072;7.800;2023-03-20T07:34:13;7.68;;;5.70;;
63555;SDS011;49700;48.072;7.800;2023-03-20T07:36:39;8.05;;;6.57;;
63555;SDS011;49700;48.072;7.800;2023-03-20T07:39:06;7.10;;;5.35;;
63555;SDS011;49700;48.072;7.800;2023-03-20T07:41:33;5.82;;;4.38;;
63555;SDS011;49700;48.072;7.800;2023-03-20T07:44:03;6.50;;;5.15;;
63555;SDS011;49700;48.072;7.800;2023-03-20T07:46:42;6.88;;;4.40;;
63555;SDS011;49700;48.072;7.800;2023-03-20T07:49:08;6.15;;;4.60;;
63555;SDS011;49700;48.072;7.800;2023-03-20T07:51:33;5.00;;;4.00;;
63555;SDS011;49700;48.072;7.800;2023-03-20T07:54:01;5.43;;;4.93;;
63555;SDS011;49700;48.072;7.800;2023-03-20T07:56:26;5.63;;;5.10;;
63555;SDS011;49700;48.072;7.800;2023-03-20T07:58:52;6.00;;;5.00;;
63555;SDS011;49700;48.072;7.800;2023-03-20T08:01:17;4.47;;;4.07;;
63555;SDS011;49700;48.072;7.800;2023-03-20T08:03:43;5.97;;;4.63;;
63555;SDS011;49700;48.072;7.800;2023-03-20T08:06:08;6.97;;;5.17;;
63555;SDS011;49700;48.072;7.800;2023-03-20T08:08:34;6.90;;;5.67;;
63555;SDS011;49700;48.072;7.800;2023-03-20T08:10:59;5.30;;;4.57;;
63555;SDS011;49700;48.072;7.800;2023-03-20T08:13:25;7.60;;;5.17;;
63555;SDS011;49700;48.072;7.800;2023-03-20T08:15:50;8.70;;;5.07;;
63555;SDS011;49700;48.072;7.800;2023-03-20T08:18:16;6.47;;;4.23;;
63555;SDS011;49700;48.072;7.800;2023-03-20T08:20:42;6.37;;;5.70;;
63555;SDS011;49700;48.072;7.800;2023-03-20T08:23:07;5.57;;;5.00;;
63555;SDS011;49700;48.072;7.800;2023-03-20T08:25:32;7.23;;;4.83;;
63555;SDS011;49700;48.072;7.800;2023-03-20T08:27:59;4.65;;;4.25;;
63555;SDS011;49700;48.072;7.800;2023-03-20T08:30:25;3.45;;;3.15;;
63555;SDS011;49700;48.072;7.800;2023-03-20T08:32:51;8.37;;;4.77;;
63555;SDS011;49700;48.072;7.800;2023-03-20T08:35:16;5.07;;;4.37;;
63555;SDS011;49700;48.072;7.800;2023-03-20T08:37:42;7.83;;;6.73;;
63555;SDS011;49700;48.072;7.800;2023-03-20T08:40:07;5.30;;;4.80;;
63555;SDS011;49700;48.072;7.800;2023-03-20T08:42:33;4.43;;;3.60;;
63555;SDS011;49700;48.072;7.800;2023-03-20T08:44:58;5.30;;;4.43;;
63555;SDS011;49700;48.072;7.800;2023-03-20T08:47:24;4.37;;;3.97;;
63555;SDS011;49700;48.072;7.800;2023-03-20T08:49:50;4.90;;;4.03;;
63555;SDS011;49700;48.072;7.800;2023-03-20T08:52:15;4.03;;;3.50;;
63555;SDS011;49700;48.072;7.800;2023-03-20T08:54:41;4.03;;;3.03;;
63555;SDS011;49700;48.072;7.800;2023-03-20T08:57:06;3.17;;;2.73;;
63555;SDS011;49700;48.072;7.800;2023-03-20T08:59:31;4.20;;;3.80;;
63555;SDS011;49700;48.072;7.800;2023-03-20T09:01:57;5.83;;;3.07;;
63555;SDS011;49700;48.072;7.800;2023-03-20T09:04:22;3.53;;;3.23;;
63555;SDS011;49700;48.072;7.800;2023-03-20T09:06:48;3.37;;;2.20;;
63555;SDS011;49700;48.072;7.800;2023-03-20T09:09:14;3.22;;;2.85;;
63555;SDS011;49700;48.072;7.800;2023-03-20T09:11:42;3.67;;;3.03;;
63555;SDS011;49700;48.072;7.800;2023-03-20T09:14:07;2.67;;;2.10;;
63555;SDS011;49700;48.072;7.800;2023-03-20T09:16:33;3.37;;;3.00;;
63555;SDS011;49700;48.072;7.800;2023-03-20T09:18:58;4.03;;;3.17;;
63555;SDS011;49700;48.072;7.800;2023-03-20T09:21:24;3.23;;;2.90;;
63555;SDS011;49700;48.072;7.800;2023-03-20T09:23:49;2.57;;;2.37;;
63555;SDS011;49700;48.072;7.800;2023-03-20T09:26:15;2.80;;;2.60;;
63555;SDS011;49700;48.072;7.800;2023-03-20T09:28:40;2.57;;;2.23;;
63555;SDS011;49700;48.072;7.800;2023-03-20T09:31:06;3.60;;;2.87;;
63555;SDS011;49700;48.072;7.800;2023-03-20T09:33:31;2.90;;;2.60;;
63555;SDS011;49700;48.072;7.800;2023-03-20T09:35:57;3.20;;;2.87;;
63555;SDS011;49700;48.072;7.800;2023-03-20T09:38:22;4.03;;;3.00;;
63555;SDS011;49700;48.072;7.800;2023-03-20T09:43:27;4.07;;;2.55;;
63555;SDS011;49700;48.072;7.800;2023-03-20T09:54:10;6.30;;;2.50;;
63555;SDS011;49700;48.072;7.800;2023-03-20T09:56:53;2.50;;;2.00;;
63555;SDS011;49700;48.072;7.800;2023-03-20T09:59:21;2.90;;;2.42;;
63555;SDS011;49700;48.072;7.800;2023-03-20T10:01:51;3.80;;;2.90;;
63555;SDS011;49700;48.072;7.800;2023-03-20T10:04:19;3.40;;;2.70;;
63555;SDS011;49700;48.072;7.800;2023-03-20T10:06:45;2.20;;;2.00;;
63555;SDS011;49700;48.072;7.800;2023-03-20T10:09:26;2.60;;;2.03;;
63555;SDS011;49700;48.072;7.800;2023-03-20T10:15:06;4.60;;;1.73;;
63555;SDS011;49700;48.072;7.800;2023-03-20T10:17:45;3.58;;;2.03;;
63555;SDS011;49700;48.072;7.800;2023-03-20T10:20:21;2.90;;;2.35;;
63555;SDS011;49700;48.072;7.800;2023-03-20T10:22:58;2.67;;;2.25;;
63555;SDS011;49700;48.072;7.800;2023-03-20T10:25:45;1.35;;;1.25;;
63555;SDS011;49700;48.072;7.800;2023-03-20T10:28:18;3.67;;;1.55;;
63555;SDS011;49700;48.072;7.800;2023-03-20T10:31:04;2.42;;;1.60;;
63555;SDS011;49700;48.072;7.800;2023-03-20T10:36:31;1.60;;;1.40;;
63555;SDS011;49700;48.072;7.800;2023-03-20T10:42:12;1.55;;;1.10;;
63555;SDS011;49700;48.072;7.800;2023-03-20T10:45:04;1.75;;;1.13;;
63555;SDS011;49700;48.072;7.800;2023-03-20T10:47:39;2.33;;;1.30;;
63555;SDS011;49700;48.072;7.800;2023-03-20T10:50:13;2.28;;;1.58;;
63555;SDS011;49700;48.072;7.800;2023-03-20T10:52:41;3.35;;;1.30;;
63555;SDS011;49700;48.072;7.800;2023-03-20T10:55:17;1.92;;;1.13;;
63555;SDS011;49700;48.072;7.800;2023-03-20T10:57:47;1.30;;;0.95;;
63555;SDS011;49700;48.072;7.800;2023-03-20T11:00:20;1.38;;;1.10;;
63555;SDS011;49700;48.072;7.800;2023-03-20T11:02:47;1.30;;;1.00;;
63555;SDS011;49700;48.072;7.800;2023-03-20T11:07:50;2.78;;;1.20;;
63555;SDS011;49700;48.072;7.800;2023-03-20T11:10:25;1.10;;;0.90;;
63555;SDS011;49700;48.072;7.800;2023-03-20T11:12:51;1.52;;;1.20;;
63555;SDS011;49700;48.072;7.800;2023-03-20T11:20:17;2.20;;;1.40;;
63555;SDS011;49700;48.072;7.800;2023-03-20T11:22:42;1.10;;;1.00;;
63555;SDS011;49700;48.072;7.800;2023-03-20T11:25:19;0.93;;;0.80;;
63555;SDS011;49700;48.072;7.800;2023-03-20T11:28:29;3.70;;;1.65;;
63555;SDS011;49700;48.072;7.800;2023-03-20T11:30:57;2.38;;;1.48;;
63555;SDS011;49700;48.072;7.800;2023-03-20T11:33:26;1.40;;;1.30;;
63555;SDS011;49700;48.072;7.800;2023-03-20T11:35:54;1.45;;;1.00;;
63555;SDS011;49700;48.072;7.800;2023-03-20T11:38:21;1.15;;;1.00;;
63555;SDS011;49700;48.072;7.800;2023-03-20T11:40:47;3.03;;;1.10;;
63555;SDS011;49700;48.072;7.800;2023-03-20T11:43:14;1.63;;;1.13;;
63555;SDS011;49700;48.072;7.800;2023-03-20T11:45:53;3.05;;;1.35;;
63555;SDS011;49700;48.072;7.800;2023-03-20T11:50:50;2.55;;;1.20;;
63555;SDS011;49700;48.072;7.800;2023-03-20T11:55:45;1.30;;;1.20;;
63555;SDS011;49700;48.072;7.800;2023-03-20T11:58:25;1.08;;;0.88;;
63555;SDS011;49700;48.072;7.800;2023-03-20T12:00:54;1.00;;;0.90;;
63555;SDS011;49700;48.072;7.800;2023-03-20T12:03:38;1.50;;;0.90;;
63555;SDS011;49700;48.072;7.800;2023-03-20T12:06:25;1.38;;;1.27;;
63555;SDS011;49700;48.072;7.800;2023-03-20T12:08:56;1.17;;;1.00;;
63555;SDS011;49700;48.072;7.800;2023-03-20T12:14:22;1.45;;;1.00;;
63555;SDS011;49700;48.072;7.800;2023-03-20T12:16:58;1.30;;;1.20;;
63555;SDS011;49700;48.072;7.800;2023-03-20T12:19:41;1.50;;;1.00;;
63555;SDS011;49700;48.072;7.800;2023-03-20T12:27:54;1.60;;;1.38;;
63555;SDS011;49700;48.072;7.800;2023-03-20T12:33:10;1.80;;;1.27;;
63555;SDS011;49700;48.072;7.800;2023-03-20T12:35:41;1.20;;;1.02;;
63555;SDS011;49700;48.072;7.800;2023-03-20T12:38:17;1.02;;;0.88;;
63555;SDS011;49700;48.072;7.800;2023-03-20T12:40:49;2.08;;;1.17;;
63555;SDS011;49700;48.072;7.800;2023-03-20T12:43:25;1.70;;;1.60;;
63555;SDS011;49700;48.072;7.800;2023-03-20T12:46:07;1.67;;;1.30;;
63555;SDS011;49700;48.072;7.800;2023-03-20T12:51:41;2.17;;;1.00;;
63555;SDS011;49700;48.072;7.800;2023-03-20T12:57:26;1.00;;;1.00;;
63555;SDS011;49700;48.072;7.800;2023-03-20T12:59:50;0.93;;;0.80;;
63555;SDS011;49700;48.072;7.800;2023-03-20T13:02:39;0.80;;;0.80;;
63555;SDS011;49700;48.072;7.800;2023-03-20T13:11:01;1.58;;;1.10;;
63555;SDS011;49700;48.072;7.800;2023-03-20T13:16:39;1.33;;;1.17;;
63555;SDS011;49700;48.072;7.800;2023-03-20T13:19:39;1.38;;;1.20;;
63555;SDS011;49700;48.072;7.800;2023-03-20T13:31:10;4.10;;;1.45;;
63555;SDS011;49700;48.072;7.800;2023-03-20T13:33:59;2.70;;;1.45;;
63555;SDS011;49700;48.072;7.800;2023-03-20T13:36:41;1.20;;;1.10;;
63555;SDS011;49700;48.072;7.800;2023-03-20T13:41:46;1.60;;;1.20;;
63555;SDS011;49700;48.072;7.800;2023-03-20T13:44:14;1.40;;;1.30;;
63555;SDS011;49700;48.072;7.800;2023-03-20T13:47:02;1.48;;;0.95;;
63555;SDS011;49700;48.072;7.800;2023-03-20T13:49:55;1.30;;;1.10;;
63555;SDS011;49700;48.072;7.800;2023-03-20T13:52:51;1.35;;;0.90;;
63555;SDS011;49700;48.072;7.800;2023-03-20T13:58:10;1.30;;;1.20;;
63555;SDS011;49700;48.072;7.800;2023-03-20T14:03:24;1.30;;;1.20;;
63555;SDS011;49700;48.072;7.800;2023-03-20T14:05:53;4.30;;;1.20;;
63555;SDS011;49700;48.072;7.800;2023-03-20T14:08:21;1.30;;;1.20;;
63555;SDS011;49700;48.072;7.800;2023-03-20T14:13:38;1.88;;;1.50;;
63555;SDS011;49700;48.072;7.800;2023-03-20T14:16:13;1.98;;;1.70;;
63555;SDS011;49700;48.072;7.800;2023-03-20T14:18:42;1.40;;;1.30;;
63555;SDS011;49700;48.072;7.800;2023-03-20T14:21:11;1.48;;;1.38;;
63555;SDS011;49700;48.072;7.800;2023-03-20T14:23:42;5.13;;;2.30;;
63555;SDS011;49700;48.072;7.800;2023-03-20T14:28:54;3.28;;;1.40;;
63555;SDS011;49700;48.072;7.800;2023-03-20T14:31:30;1.83;;;1.42;;
63555;SDS011;49700;48.072;7.800;2023-03-20T14:36:41;1.55;;;1.20;;
63555;SDS011;49700;48.072;7.800;2023-03-20T14:44:49;4.97;;;3.13;;
63555;SDS011;49700;48.072;7.800;2023-03-20T14:47:28;2.92;;;1.92;;
63555;SDS011;49700;48.072;7.800;2023-03-20T14:50:27;3.67;;;2.38;;
63555;SDS011;49700;48.072;7.800;2023-03-20T15:01:14;1.13;;;1.02;;
63555;SDS011;49700;48.072;7.800;2023-03-20T15:03:43;3.35;;;2.15;;
63555;SDS011;49700;48.072;7.800;2023-03-20T15:06:15;1.60;;;1.27;;
63555;SDS011;49700;48.072;7.800;2023-03-20T15:08:44;1.95;;;1.20;;
63555;SDS011;49700;48.072;7.800;2023-03-20T15:11:13;1.40;;;1.30;;
63555;SDS011;49700;48.072;7.800;2023-03-20T15:13:40;1.33;;;1.02;;
63555;SDS011;49700;48.072;7.800;2023-03-20T15:16:09;1.27;;;1.15;;
63555;SDS011;49700;48.072;7.800;2023-03-20T15:18:37;1.63;;;1.10;;
63555;SDS011;49700;48.072;7.800;2023-03-20T15:21:20;1.38;;;1.20;;
63555;SDS011;49700;48.072;7.800;2023-03-20T15:23:52;1.38;;;1.20;;
63555;SDS011;49700;48.072;7.800;2023-03-20T15:26:18;1.50;;;1.10;;
63555;SDS011;49700;48.072;7.800;2023-03-20T15:28:46;1.50;;;1.40;;
63555;SDS011;49700;48.072;7.800;2023-03-20T15:31:20;1.93;;;1.30;;
63555;SDS011;49700;48.072;7.800;2023-03-20T15:33:57;1.20;;;1.00;;
63555;SDS011;49700;48.072;7.800;2023-03-20T15:36:29;1.42;;;1.20;;
63555;SDS011;49700;48.072;7.800;2023-03-20T15:39:16;1.73;;;1.20;;
63555;SDS011;49700;48.072;7.800;2023-03-20T15:41:44;1.25;;;1.00;;
63555;SDS011;49700;48.072;7.800;2023-03-20T15:47:02;2.00;;;1.10;;
63555;SDS011;49700;48.072;7.800;2023-03-20T15:49:36;1.15;;;1.05;;
63555;SDS011;49700;48.072;7.800;2023-03-20T15:54:49;1.23;;;1.00;;
63555;SDS011;49700;48.072;7.800;2023-03-20T15:57:18;0.80;;;0.70;;
63555;SDS011;49700;48.072;7.800;2023-03-20T15:59:49;1.55;;;0.90;;
63555;SDS011;49700;48.072;7.800;2023-03-20T16:02:15;0.93;;;0.82;;
63555;SDS011;49700;48.072;7.800;2023-03-20T16:04:45;1.80;;;1.20;;
63555;SDS011;49700;48.072;7.800;2023-03-20T16:07:46;2.10;;;1.17;;
63555;SDS011;49700;48.072;7.800;2023-03-20T16:13:05;1.48;;;1.00;;
63555;SDS011;49700;48.072;7.800;2023-03-20T16:15:31;1.38;;;1.15;;
63555;SDS011;49700;48.072;7.800;2023-03-20T16:17:58;1.60;;;1.10;;
63555;SDS011;49700;48.072;7.800;2023-03-20T16:20:28;1.50;;;1.10;;
63555;SDS011;49700;48.072;7.800;2023-03-20T16:23:01;1.50;;;1.40;;
63555;SDS011;49700;48.072;7.800;2023-03-20T16:25:30;1.38;;;1.25;;
63555;SDS011;49700;48.072;7.800;2023-03-20T16:27:55;1.03;;;0.93;;
63555;SDS011;49700;48.072;7.800;2023-03-20T16:30:25;1.13;;;0.98;;
63555;SDS011;49700;48.072;7.800;2023-03-20T16:33:05;1.10;;;1.00;;
63555;SDS011;49700;48.072;7.800;2023-03-20T16:35:41;2.63;;;1.20;;
63555;SDS011;49700;48.072;7.800;2023-03-20T16:40:56;2.05;;;1.85;;
63555;SDS011;49700;48.072;7.800;2023-03-20T16:43:44;3.53;;;2.55;;
63555;SDS011;49700;48.072;7.800;2023-03-20T16:46:16;2.45;;;2.25;;
63555;SDS011;49700;48.072;7.800;2023-03-20T16:48:45;3.95;;;1.83;;
63555;SDS011;49700;48.072;7.800;2023-03-20T16:51:14;2.17;;;1.40;;
63555;SDS011;49700;48.072;7.800;2023-03-20T16:53:49;1.90;;;1.58;;
63555;SDS011;49700;48.072;7.800;2023-03-20T16:56:22;1.60;;;1.20;;
63555;SDS011;49700;48.072;7.800;2023-03-20T16:58:53;1.40;;;1.13;;
63555;SDS011;49700;48.072;7.800;2023-03-20T17:01:19;1.33;;;1.10;;
63555;SDS011;49700;48.072;7.800;2023-03-20T17:03:57;1.05;;;0.80;;
63555;SDS011;49700;48.072;7.800;2023-03-20T17:06:36;1.63;;;1.17;;
63555;SDS011;49700;48.072;7.800;2023-03-20T17:09:18;1.20;;;0.95;;
63555;SDS011;49700;48.072;7.800;2023-03-20T17:11:50;1.80;;;1.10;;
63555;SDS011;49700;48.072;7.800;2023-03-20T17:14:25;2.25;;;1.10;;
63555;SDS011;49700;48.072;7.800;2023-03-20T17:16:51;1.23;;;1.13;;
63555;SDS011;49700;48.072;7.800;2023-03-20T17:19:19;1.48;;;1.20;;
63555;SDS011;49700;48.072;7.800;2023-03-20T17:21:45;0.97;;;0.73;;
63555;SDS011;49700;48.072;7.800;2023-03-20T17:24:11;1.00;;;0.80;;
63555;SDS011;49700;48.072;7.800;2023-03-20T17:26:38;1.20;;;0.95;;
63555;SDS011;49700;48.072;7.800;2023-03-20T17:29:05;1.48;;;1.00;;
63555;SDS011;49700;48.072;7.800;2023-03-20T17:31:31;2.17;;;1.50;;
63555;SDS011;49700;48.072;7.800;2023-03-20T17:33:57;4.53;;;1.87;;
63555;SDS011;49700;48.072;7.800;2023-03-20T17:36:23;3.43;;;1.87;;
63555;SDS011;49700;48.072;7.800;2023-03-20T17:38:54;11.02;;;2.67;;
63555;SDS011;49700;48.072;7.800;2023-03-20T17:41:20;3.38;;;2.50;;
63555;SDS011;49700;48.072;7.800;2023-03-20T17:43:47;4.05;;;2.78;;